createdAt,value
2023-03-23T15:58:17.338Z,26.00
2023-03-23T16:00:48.419Z,26.75
2023-03-23T16:03:25.597Z,23.38
2023-03-23T16:05:55.250Z,18.98
2023-03-23T16:08:24.487Z,22.35
2023-03-23T16:10:53.924Z,19.17
2023-03-23T16:13:23.452Z,17.42
2023-03-23T16:15:52.937Z,19.30
2023-03-23T16:18:24.813Z,17.52
2023-03-23T16:20:54.314Z,20.55
2023-03-23T16:23:23.937Z,26.75
2023-03-23T16:25:53.278Z,26.75
2023-03-23T16:28:22.830Z,30.00
2023-03-23T16:30:52.457Z,32.65
2023-03-23T16:33:23.700Z,32.72
2023-03-23T16:35:53.092Z,28.38
2023-03-23T16:38:22.560Z,28.95
2023-03-23T16:40:52.192Z,26.77
2023-03-23T16:43:22.676Z,27.08
2023-03-23T16:45:51.975Z,30.13
2023-03-23T16:48:23.510Z,25.17
2023-03-23T16:50:56.144Z,27.98
2023-03-23T16:53:26.560Z,25.83
2023-03-23T16:55:58.023Z,23.90
2023-03-23T16:58:27.687Z,30.10
2023-03-23T17:00:57.256Z,20.30
2023-03-23T17:03:26.666Z,25.08
2023-03-23T17:05:58.041Z,20.00
2023-03-23T17:08:27.325Z,18.42
2023-03-23T17:10:56.600Z,21.48
2023-03-23T17:13:28.296Z,16.83
2023-03-23T17:15:58.481Z,15.57
2023-03-23T17:18:29.559Z,14.00
2023-03-23T17:21:00.404Z,14.35
2023-03-23T17:23:29.789Z,10.73
2023-03-23T17:25:59.040Z,13.57
2023-03-23T17:28:28.340Z,13.68
2023-03-23T17:30:57.669Z,13.45
2023-03-23T17:33:26.898Z,17.80
2023-03-23T17:35:56.363Z,22.30
2023-03-23T17:38:27.549Z,14.18
2023-03-23T17:41:00.265Z,13.30
2023-03-23T17:43:29.592Z,12.43
2023-03-23T17:45:59.056Z,7.70
2023-03-23T17:48:28.561Z,9.02
2023-03-23T17:50:59.598Z,10.93
2023-03-23T17:53:31.978Z,7.00
2023-03-23T17:56:01.599Z,5.40
2023-03-23T17:58:30.915Z,6.03
2023-03-23T18:01:00.566Z,8.73
2023-03-23T18:03:30.080Z,8.75
2023-03-23T18:06:02.017Z,10.88
2023-03-23T18:08:33.239Z,11.00
2023-03-23T18:11:03.141Z,8.05
2023-03-23T18:13:34.605Z,10.35
2023-03-23T18:16:05.651Z,13.75
2023-03-23T18:18:35.824Z,7.85
2023-03-23T18:21:08.229Z,5.72
2023-03-23T18:23:49.310Z,6.13
2023-03-23T18:26:22.620Z,7.17
2023-03-23T18:28:53.261Z,5.10
2023-03-23T18:31:22.717Z,6.88
2023-03-23T18:33:54.889Z,11.57
2023-03-23T18:36:25.944Z,16.00
2023-03-23T18:38:59.266Z,10.85
2023-03-23T18:41:28.740Z,15.15
2023-03-23T18:43:58.081Z,16.23
2023-03-23T18:46:27.743Z,12.10
2023-03-23T18:48:57.230Z,17.55
2023-03-23T18:51:26.802Z,16.60
2023-03-23T18:53:57.589Z,25.70
2023-03-23T18:56:27.393Z,41.67
2023-03-23T18:58:56.717Z,27.20
2023-03-23T19:01:26.046Z,26.73
2023-03-23T19:03:55.588Z,31.75
2023-03-23T19:06:27.846Z,36.78
2023-03-23T19:08:59.280Z,39.88
2023-03-23T19:11:29.010Z,21.85
2023-03-23T19:14:02.876Z,15.68
2023-03-23T19:16:34.784Z,23.60
2023-03-23T19:19:04.565Z,27.00
2023-03-23T19:21:34.293Z,25.80
2023-03-23T19:24:06.985Z,18.40
2023-03-23T19:26:38.540Z,16.25
2023-03-23T19:31:40.866Z,15.48
2023-03-23T19:34:10.689Z,15.38
2023-03-23T19:36:40.190Z,20.10
2023-03-23T19:39:10.980Z,19.50
2023-03-23T19:41:41.764Z,17.83
2023-03-23T19:44:11.121Z,13.07
2023-03-23T19:46:40.358Z,15.25
2023-03-23T19:49:10.228Z,12.57
2023-03-23T19:51:39.799Z,12.57
2023-03-23T19:54:10.590Z,13.35
2023-03-23T19:56:39.846Z,11.57
2023-03-23T19:59:10.938Z,16.83
2023-03-23T20:01:41.336Z,16.58
2023-03-23T20:04:12.435Z,17.58
2023-03-23T20:06:41.884Z,17.45
2023-03-23T20:09:13.658Z,20.98
2023-03-23T20:11:43.369Z,27.08
2023-03-23T20:14:12.498Z,18.10
2023-03-23T20:16:42.677Z,16.08
2023-03-23T20:19:11.899Z,15.93
2023-03-23T20:21:41.146Z,15.57
2023-03-23T20:24:10.353Z,14.23
2023-03-23T20:26:43.468Z,13.80
2023-03-23T20:29:12.910Z,13.50
2023-03-23T20:31:43.648Z,14.18
2023-03-23T20:34:14.380Z,13.90
2023-03-23T20:36:45.687Z,14.35
2023-03-23T20:39:16.778Z,14.07
2023-03-23T20:41:48.755Z,15.80
2023-03-23T20:44:18.491Z,16.95
2023-03-23T20:46:49.334Z,13.48
2023-03-23T20:49:19.412Z,12.35
2023-03-23T20:51:49.204Z,10.77
2023-03-23T20:54:20.127Z,14.07
2023-03-23T20:56:51.237Z,8.63
2023-03-23T20:59:21.368Z,13.98
2023-03-23T21:01:51.796Z,9.00
2023-03-23T21:04:23.466Z,11.70
2023-03-23T21:06:52.846Z,12.73
2023-03-23T21:09:22.563Z,14.02
2023-03-23T21:11:53.299Z,12.27
2023-03-23T21:14:23.954Z,11.35
2023-03-23T21:16:53.141Z,11.13
2023-03-23T21:19:22.590Z,10.23
2023-03-23T21:21:56.253Z,10.90
2023-03-23T21:24:28.584Z,12.07
2023-03-23T21:27:01.237Z,10.90
2023-03-23T21:29:31.586Z,9.98
2023-03-23T21:32:08.172Z,11.00
2023-03-23T21:34:38.543Z,15.80
2023-03-23T21:37:08.006Z,8.40
2023-03-23T21:39:37.305Z,12.73
2023-03-23T21:42:08.461Z,12.57
2023-03-23T21:44:39.572Z,10.05
2023-03-23T21:47:08.798Z,8.68
2023-03-23T21:49:40.467Z,10.80
2023-03-23T21:52:10.619Z,13.30
2023-03-23T21:54:41.632Z,11.05
2023-03-23T21:57:12.264Z,11.88
2023-03-23T21:59:41.476Z,9.85
2023-03-23T22:02:14.039Z,11.65
2023-03-23T22:04:43.424Z,10.85
2023-03-23T22:07:13.507Z,14.77
2023-03-23T22:09:45.424Z,11.68
2023-03-23T22:12:17.073Z,14.70
2023-03-23T22:14:46.804Z,12.05
2023-03-23T22:17:16.035Z,14.82
2023-03-23T22:19:45.271Z,14.40
2023-03-23T22:22:14.496Z,14.70
2023-03-23T22:24:43.722Z,16.13
2023-03-23T22:27:13.027Z,16.48
2023-03-23T22:29:43.815Z,19.45
2023-03-23T22:32:13.359Z,18.08
2023-03-23T22:34:43.215Z,21.00
2023-03-23T22:37:12.721Z,20.05
2023-03-23T22:39:42.020Z,22.30
2023-03-23T22:42:12.434Z,18.80
2023-03-23T22:44:44.215Z,21.50
2023-03-23T22:47:13.475Z,15.57
2023-03-23T22:49:42.777Z,18.70
2023-03-23T22:52:12.130Z,15.15
2023-03-23T22:54:41.521Z,21.42
2023-03-23T22:57:10.778Z,16.60
2023-03-23T22:59:40.033Z,17.95
2023-03-23T23:02:10.880Z,17.75
2023-03-23T23:04:40.068Z,17.75
2023-03-23T23:07:14.576Z,18.75
2023-03-23T23:09:43.935Z,21.70
2023-03-23T23:12:15.031Z,21.92
2023-03-23T23:14:45.238Z,17.85
2023-03-23T23:17:16.001Z,18.25
2023-03-23T23:19:45.427Z,24.33
2023-03-23T23:22:19.391Z,22.88
2023-03-23T23:24:49.070Z,27.50
2023-03-23T23:27:18.655Z,22.48
2023-03-23T23:29:48.104Z,27.85
2023-03-23T23:32:18.940Z,25.90
2023-03-23T23:34:49.002Z,26.02
2023-03-23T23:37:18.329Z,20.63
2023-03-23T23:39:47.566Z,23.58
2023-03-23T23:42:16.831Z,24.38
2023-03-23T23:44:46.882Z,24.00
2023-03-23T23:47:16.513Z,18.90
2023-03-23T23:49:47.365Z,24.63
2023-03-23T23:52:16.895Z,23.52
2023-03-23T23:54:49.040Z,19.95
2023-03-23T23:57:18.422Z,17.10
2023-03-23T23:59:47.726Z,20.10
